sensor_id;sensor_type;location;lat;lon;timestamp;pressure;altitude;pressure_sealevel;temperature;humidity
72798;BME280;61084;55.816;37.036;2023-04-06T00:01:38;100214.56;;;5.56;66.91
72798;BME280;61084;55.816;37.036;2023-04-06T00:04:04;100208.53;;;5.54;66.89
72798;BME280;61084;55.816;37.036;2023-04-06T00:06:30;100210.28;;;5.52;67.27
72798;BME280;61084;55.816;37.036;2023-04-06T00:08:57;100210.31;;;5.51;67.16
72798;BME280;61084;55.816;37.036;2023-04-06T00:11:23;100214.69;;;5.49;67.12
72798;BME280;61084;55.816;37.036;2023-04-06T00:13:49;100217.31;;;5.47;67.11
72798;BME280;61084;55.816;37.036;2023-04-06T00:16:15;100215.59;;;5.46;67.17
72798;BME280;61084;55.816;37.036;2023-04-06T00:18:41;100215.59;;;5.46;67.08
72798;BME280;61084;55.816;37.036;2023-04-06T00:21:06;100213.91;;;5.45;67.34
72798;BME280;61084;55.816;37.036;2023-04-06T00:23:32;100218.28;;;5.43;67.23
72798;BME280;61084;55.816;37.036;2023-04-06T00:25:58;100225.25;;;5.40;67.26
72798;BME280;61084;55.816;37.036;2023-04-06T00:28:24;100218.41;;;5.37;67.02
72798;BME280;61084;55.816;37.036;2023-04-06T00:30:52;100221.06;;;5.34;67.15
72798;BME280;61084;55.816;37.036;2023-04-06T00:33:19;100221.16;;;5.28;67.63
72798;BME280;61084;55.816;37.036;2023-04-06T00:35:45;100222.09;;;5.25;67.70
72798;BME280;61084;55.816;37.036;2023-04-06T00:38:14;100220.44;;;5.21;67.38
72798;BME280;61084;55.816;37.036;2023-04-06T00:40:41;100215.25;;;5.18;67.27
72798;BME280;61084;55.816;37.036;2023-04-06T00:43:11;100219.63;;;5.16;67.39
72798;BME280;61084;55.816;37.036;2023-04-06T00:45:41;100217.06;;;5.15;67.76
72798;BME280;61084;55.816;37.036;2023-04-06T00:48:08;100217.13;;;5.12;67.82
72798;BME280;61084;55.816;37.036;2023-04-06T00:50:34;100219.72;;;5.12;67.68
72798;BME280;61084;55.816;37.036;2023-04-06T00:53:00;100220.63;;;5.11;67.25
72798;BME280;61084;55.816;37.036;2023-04-06T00:55:28;100217.22;;;5.06;67.52
72798;BME280;61084;55.816;37.036;2023-04-06T00:57:58;100213.84;;;5.02;67.94
72798;BME280;61084;55.816;37.036;2023-04-06T01:00:26;100219.13;;;4.98;67.74
72798;BME280;61084;55.816;37.036;2023-04-06T01:02:56;100215.69;;;4.94;67.63
72798;BME280;61084;55.816;37.036;2023-04-06T01:05:30;100224.41;;;4.93;67.56
72798;BME280;61084;55.816;37.036;2023-04-06T01:07:58;100212.22;;;4.95;67.84
72798;BME280;61084;55.816;37.036;2023-04-06T01:10:28;100216.59;;;4.92;67.55
72798;BME280;61084;55.816;37.036;2023-04-06T01:13:03;100211.44;;;4.90;67.75
72798;BME280;61084;55.816;37.036;2023-04-06T01:15:53;100213.19;;;4.88;67.58
72798;BME280;61084;55.816;37.036;2023-04-06T01:18:29;100209.78;;;4.86;68.04
72798;BME280;61084;55.816;37.036;2023-04-06T01:21:13;100207.28;;;4.80;67.66
72798;BME280;61084;55.816;37.036;2023-04-06T01:23:50;100207.28;;;4.79;68.19
72798;BME280;61084;55.816;37.036;2023-04-06T01:26:22;100196.06;;;4.77;67.97
72798;BME280;61084;55.816;37.036;2023-04-06T01:28:50;100204.75;;;4.76;67.92
72798;BME280;61084;55.816;37.036;2023-04-06T01:31:27;100204.75;;;4.74;67.77
72798;BME280;61084;55.816;37.036;2023-04-06T01:33:54;100203.03;;;4.75;68.02
72798;BME280;61084;55.816;37.036;2023-04-06T01:36:23;100204.88;;;4.70;67.82
72798;BME280;61084;55.816;37.036;2023-04-06T01:38:57;100202.25;;;4.68;67.55
72798;BME280;61084;55.816;37.036;2023-04-06T01:41:30;100205.78;;;4.66;68.07
72798;BME280;61084;55.816;37.036;2023-04-06T01:43:56;100204.97;;;4.62;67.24
72798;BME280;61084;55.816;37.036;2023-04-06T01:46:28;100200.72;;;4.58;68.10
72798;BME280;61084;55.816;37.036;2023-04-06T01:48:54;100199.03;;;4.54;68.06
72798;BME280;61084;55.816;37.036;2023-04-06T01:51:29;100205.97;;;4.53;68.32
72798;BME280;61084;55.816;37.036;2023-04-06T01:54:01;100200.78;;;4.53;68.18
72798;BME280;61084;55.816;37.036;2023-04-06T01:56:44;100202.53;;;4.51;68.31
72798;BME280;61084;55.816;37.036;2023-04-06T01:59:24;100203.41;;;4.50;69.19
72798;BME280;61084;55.816;37.036;2023-04-06T02:01:51;100196.50;;;4.49;68.14
72798;BME280;61084;55.816;37.036;2023-04-06T02:04:17;100193.94;;;4.48;68.34
72798;BME280;61084;55.816;37.036;2023-04-06T02:06:46;100200.00;;;4.47;68.61
72798;BME280;61084;55.816;37.036;2023-04-06T02:09:14;100193.09;;;4.46;68.38
72798;BME280;61084;55.816;37.036;2023-04-06T02:11:40;100196.59;;;4.45;68.87
72798;BME280;61084;55.816;37.036;2023-04-06T02:14:06;100187.06;;;4.44;68.53
72798;BME280;61084;55.816;37.036;2023-04-06T02:16:37;100196.63;;;4.43;68.13
72798;BME280;61084;55.816;37.036;2023-04-06T02:19:03;100188.81;;;4.42;68.37
72798;BME280;61084;55.816;37.036;2023-04-06T02:21:29;100200.94;;;4.43;69.01
72798;BME280;61084;55.816;37.036;2023-04-06T02:23:55;100195.78;;;4.41;68.75
72798;BME280;61084;55.816;37.036;2023-04-06T02:26:21;100207.00;;;4.43;68.68
72798;BME280;61084;55.816;37.036;2023-04-06T02:28:47;100206.16;;;4.43;68.67
72798;BME280;61084;55.816;37.036;2023-04-06T02:31:12;100201.00;;;4.38;68.95
72798;BME280;61084;55.816;37.036;2023-04-06T02:33:42;100214.03;;;4.37;68.86
72798;BME280;61084;55.816;37.036;2023-04-06T02:36:09;100213.22;;;4.35;68.53
72798;BME280;61084;55.816;37.036;2023-04-06T02:38:34;100215.88;;;4.29;68.44
72798;BME280;61084;55.816;37.036;2023-04-06T02:41:01;100213.34;;;4.26;68.48
72798;BME280;61084;55.816;37.036;2023-04-06T02:43:28;100215.09;;;4.24;68.26
72798;BME280;61084;55.816;37.036;2023-04-06T02:46:02;100228.06;;;4.25;68.70
72798;BME280;61084;55.816;37.036;2023-04-06T02:48:31;100230.63;;;4.28;68.18
72798;BME280;61084;55.816;37.036;2023-04-06T02:50:57;100237.56;;;4.28;68.74
72798;BME280;61084;55.816;37.036;2023-04-06T02:53:23;100233.25;;;4.25;68.70
72798;BME280;61084;55.816;37.036;2023-04-06T02:55:49;100233.22;;;4.27;68.69
72798;BME280;61084;55.816;37.036;2023-04-06T02:58:14;100239.25;;;4.30;68.97
72798;BME280;61084;55.816;37.036;2023-04-06T03:00:48;100239.25;;;4.30;69.04
72798;BME280;61084;55.816;37.036;2023-04-06T03:03:13;100240.13;;;4.29;68.52
72798;BME280;61084;55.816;37.036;2023-04-06T03:05:41;100247.94;;;4.26;68.85
72798;BME280;61084;55.816;37.036;2023-04-06T03:08:08;100249.69;;;4.27;68.80
72798;BME280;61084;55.816;37.036;2023-04-06T03:10:41;100249.69;;;4.27;68.86
72798;BME280;61084;55.816;37.036;2023-04-06T03:13:07;100251.41;;;4.27;68.44
72798;BME280;61084;55.816;37.036;2023-04-06T03:16:03;100257.41;;;4.32;68.46
72798;BME280;61084;55.816;37.036;2023-04-06T03:18:28;100253.94;;;4.31;68.57
72798;BME280;61084;55.816;37.036;2023-04-06T03:20:56;100260.88;;;4.31;68.93
72798;BME280;61084;55.816;37.036;2023-04-06T03:23:27;100262.63;;;4.32;68.69
72798;BME280;61084;55.816;37.036;2023-04-06T03:25:57;100260.84;;;4.34;68.58
72798;BME280;61084;55.816;37.036;2023-04-06T03:28:23;100266.00;;;4.35;68.90
72798;BME280;61084;55.816;37.036;2023-04-06T03:30:55;100259.91;;;4.41;68.85
72798;BME280;61084;55.816;37.036;2023-04-06T03:33:39;100265.06;;;4.42;68.58
72798;BME280;61084;55.816;37.036;2023-04-06T03:36:08;100268.56;;;4.41;68.44
72798;BME280;61084;55.816;37.036;2023-04-06T03:38:39;100267.63;;;4.44;68.52
72798;BME280;61084;55.816;37.036;2023-04-06T03:41:09;100268.47;;;4.47;68.45
72798;BME280;61084;55.816;37.036;2023-04-06T03:43:37;100276.16;;;4.53;68.53
72798;BME280;61084;55.816;37.036;2023-04-06T03:46:03;100273.53;;;4.56;68.79
72798;BME280;61084;55.816;37.036;2023-04-06T03:48:29;100281.22;;;4.63;68.33
72798;BME280;61084;55.816;37.036;2023-04-06T03:51:00;100280.28;;;4.68;68.56
72798;BME280;61084;55.816;37.036;2023-04-06T03:53:25;100280.28;;;4.68;68.39
72798;BME280;61084;55.816;37.036;2023-04-06T03:55:52;100285.44;;;4.71;68.66
72798;BME280;61084;55.816;37.036;2023-04-06T03:58:18;100287.13;;;4.72;68.44
72798;BME280;61084;55.816;37.036;2023-04-06T04:00:44;100285.38;;;4.76;68.54
72798;BME280;61084;55.816;37.036;2023-04-06T04:03:10;100289.63;;;4.80;68.65
72798;BME280;61084;55.816;37.036;2023-04-06T04:05:36;100292.19;;;4.83;68.25
72798;BME280;61084;55.816;37.036;2023-04-06T04:08:02;100284.28;;;4.89;68.39
72798;BME280;61084;55.816;37.036;2023-04-06T04:10:28;100292.00;;;4.95;68.35
72798;BME280;61084;55.816;37.036;2023-04-06T04:12:54;100292.78;;;5.00;67.86
72798;BME280;61084;55.816;37.036;2023-04-06T04:15:20;100292.72;;;5.04;68.29
72798;BME280;61084;55.816;37.036;2023-04-06T04:17:47;100295.16;;;5.12;68.20
72798;BME280;61084;55.816;37.036;2023-04-06T04:20:15;100289.94;;;5.13;68.14
72798;BME280;61084;55.816;37.036;2023-04-06T04:22:42;100297.66;;;5.18;67.71
72798;BME280;61084;55.816;37.036;2023-04-06T04:25:09;100290.69;;;5.20;67.73
72798;BME280;61084;55.816;37.036;2023-04-06T04:27:40;100297.50;;;5.27;67.89
72798;BME280;61084;55.816;37.036;2023-04-06T04:30:07;100299.16;;;5.32;67.63
72798;BME280;61084;55.816;37.036;2023-04-06T04:32:33;100305.97;;;5.40;67.79
72798;BME280;61084;55.816;37.036;2023-04-06T04:35:01;100296.28;;;5.48;67.35
72798;BME280;61084;55.816;37.036;2023-04-06T04:37:35;100300.47;;;5.56;67.31
72798;BME280;61084;55.816;37.036;2023-04-06T04:40:02;100302.97;;;5.62;67.11
72798;BME280;61084;55.816;37.036;2023-04-06T04:42:31;100307.22;;;5.66;67.17
72798;BME280;61084;55.816;37.036;2023-04-06T04:44:59;100306.19;;;5.75;67.02
72798;BME280;61084;55.816;37.036;2023-04-06T04:47:39;100306.06;;;5.82;67.37
72798;BME280;61084;55.816;37.036;2023-04-06T04:50:06;100312.97;;;5.86;67.18
72798;BME280;61084;55.816;37.036;2023-04-06T04:52:34;100306.75;;;5.93;66.72
72798;BME280;61084;55.816;37.036;2023-04-06T04:55:20;100311.88;;;5.98;67.00
72798;BME280;61084;55.816;37.036;2023-04-06T04:57:50;100307.41;;;6.03;66.20
72798;BME280;61084;55.816;37.036;2023-04-06T05:00:21;100309.03;;;6.08;66.29
72798;BME280;61084;55.816;37.036;2023-04-06T05:02:47;100307.94;;;6.19;66.37
72798;BME280;61084;55.816;37.036;2023-04-06T05:05:17;100303.47;;;6.25;66.10
72798;BME280;61084;55.816;37.036;2023-04-06T05:07:44;100301.59;;;6.32;66.29
72798;BME280;61084;55.816;37.036;2023-04-06T05:10:18;100307.44;;;6.43;66.39
72798;BME280;61084;55.816;37.036;2023-04-06T05:12:58;100298.72;;;6.44;65.73
72798;BME280;61084;55.816;37.036;2023-04-06T05:15:25;100301.16;;;6.51;66.08
72798;BME280;61084;55.816;37.036;2023-04-06T05:17:55;100306.13;;;6.62;65.72
72798;BME280;61084;55.816;37.036;2023-04-06T05:20:28;100304.16;;;6.73;65.61
72798;BME280;61084;55.816;37.036;2023-04-06T05:22:54;100303.00;;;6.84;65.44
72798;BME280;61084;55.816;37.036;2023-04-06T05:25:20;100302.81;;;6.94;65.45
72798;BME280;61084;55.816;37.036;2023-04-06T05:27:50;100306.84;;;7.05;64.98
72798;BME280;61084;55.816;37.036;2023-04-06T05:30:27;100298.75;;;7.16;64.79
72798;BME280;61084;55.816;37.036;2023-04-06T05:32:53;100304.72;;;7.21;64.82
72798;BME280;61084;55.816;37.036;2023-04-06T05:35:20;100309.78;;;7.28;64.97
72798;BME280;61084;55.816;37.036;2023-04-06T05:37:50;100304.41;;;7.34;64.87
72798;BME280;61084;55.816;37.036;2023-04-06T05:40:17;100304.03;;;7.48;64.79
72798;BME280;61084;55.816;37.036;2023-04-06T05:42:43;100303.78;;;7.57;64.30
72798;BME280;61084;55.816;37.036;2023-04-06T05:45:11;100308.97;;;7.58;64.01
72798;BME280;61084;55.816;37.036;2023-04-06T05:47:42;100306.25;;;7.63;64.09
72798;BME280;61084;55.816;37.036;2023-04-06T05:50:19;100310.44;;;7.69;63.59
72798;BME280;61084;55.816;37.036;2023-04-06T05:52:45;100316.28;;;7.78;63.47
72798;BME280;61084;55.816;37.036;2023-04-06T05:55:14;100315.19;;;7.87;63.90
72798;BME280;61084;55.816;37.036;2023-04-06T05:57:46;100318.31;;;7.99;63.85
72798;BME280;61084;55.816;37.036;2023-04-06T06:00:15;100311.91;;;8.09;63.33
72798;BME280;61084;55.816;37.036;2023-04-06T06:02:51;100316.81;;;8.21;63.62
72798;BME280;61084;55.816;37.036;2023-04-06T06:05:21;100318.34;;;8.30;63.04
72798;BME280;61084;55.816;37.036;2023-04-06T06:07:48;100312.03;;;8.37;63.19
72798;BME280;61084;55.816;37.036;2023-04-06T06:10:14;100308.44;;;8.41;62.83
72798;BME280;61084;55.816;37.036;2023-04-06T06:12:40;100308.09;;;8.52;63.03
72798;BME280;61084;55.816;37.036;2023-04-06T06:15:07;100307.91;;;8.58;62.29
72798;BME280;61084;55.816;37.036;2023-04-06T06:17:37;100309.53;;;8.62;62.34
72798;BME280;61084;55.816;37.036;2023-04-06T06:20:06;100309.31;;;8.68;62.56
72798;BME280;61084;55.816;37.036;2023-04-06T06:22:32;100302.88;;;8.79;62.17
72798;BME280;61084;55.816;37.036;2023-04-06T06:24:58;100307.81;;;8.88;61.99
72798;BME280;61084;55.816;37.036;2023-04-06T06:27:24;100308.28;;;9.01;62.10
72798;BME280;61084;55.816;37.036;2023-04-06T06:29:50;100314.03;;;9.12;62.31
72798;BME280;61084;55.816;37.036;2023-04-06T06:32:16;100312.13;;;9.17;61.47
72798;BME280;61084;55.816;37.036;2023-04-06T06:34:44;100311.03;;;9.24;61.95
72798;BME280;61084;55.816;37.036;2023-04-06T06:37:10;100306.44;;;9.31;61.60
72798;BME280;61084;55.816;37.036;2023-04-06T06:39:37;100306.88;;;9.43;61.63
72798;BME280;61084;55.816;37.036;2023-04-06T06:42:03;100305.59;;;9.55;61.12
72798;BME280;61084;55.816;37.036;2023-04-06T06:44:52;100305.19;;;9.67;60.74
72798;BME280;61084;55.816;37.036;2023-04-06T06:47:18;100302.34;;;9.73;61.01
72798;BME280;61084;55.816;37.036;2023-04-06T06:49:44;100301.94;;;9.85;60.56
72798;BME280;61084;55.816;37.036;2023-04-06T06:52:09;100300.75;;;9.94;60.39
72798;BME280;61084;55.816;37.036;2023-04-06T06:54:35;100294.97;;;10.07;60.40
72798;BME280;61084;55.816;37.036;2023-04-06T06:57:01;100294.00;;;10.11;59.96
72798;BME280;61084;55.816;37.036;2023-04-06T06:59:27;100288.41;;;10.20;60.47
72798;BME280;61084;55.816;37.036;2023-04-06T07:01:53;100295.03;;;10.30;58.43
72798;BME280;61084;55.816;37.036;2023-04-06T07:04:19;100293.88;;;10.37;59.61
72798;BME280;61084;55.816;37.036;2023-04-06T07:06:45;100291.75;;;10.47;59.55
72798;BME280;61084;55.816;37.036;2023-04-06T07:09:11;100293.94;;;10.59;59.67
72798;BME280;61084;55.816;37.036;2023-04-06T07:11:37;100286.34;;;10.73;59.18
72798;BME280;61084;55.816;37.036;2023-04-06T07:14:02;100292.72;;;10.89;59.66
72798;BME280;61084;55.816;37.036;2023-04-06T07:16:28;100293.38;;;10.94;59.74
72798;BME280;61084;55.816;37.036;2023-04-06T07:18:54;100287.94;;;10.99;59.38
72798;BME280;61084;55.816;37.036;2023-04-06T07:21:22;100287.66;;;11.06;58.90
72798;BME280;61084;55.816;37.036;2023-04-06T07:23:48;100287.28;;;11.15;58.52
72798;BME280;61084;55.816;37.036;2023-04-06T07:26:14;100290.38;;;11.25;57.41
72798;BME280;61084;55.816;37.036;2023-04-06T07:28:40;100289.69;;;11.42;58.40
72798;BME280;61084;55.816;37.036;2023-04-06T07:31:07;100278.81;;;11.49;58.29
72798;BME280;61084;55.816;37.036;2023-04-06T07:33:33;100279.50;;;11.54;57.52
72798;BME280;61084;55.816;37.036;2023-04-06T07:35:59;100294.53;;;11.51;58.23
72798;BME280;61084;55.816;37.036;2023-04-06T07:38:25;100287.84;;;11.44;58.22
72798;BME280;61084;55.816;37.036;2023-04-06T07:40:51;100281.97;;;11.37;57.87
72798;BME280;61084;55.816;37.036;2023-04-06T07:43:18;100285.84;;;11.49;57.54
72798;BME280;61084;55.816;37.036;2023-04-06T07:45:44;100283.34;;;11.67;58.13
72798;BME280;61084;55.816;37.036;2023-04-06T07:48:12;100282.78;;;11.79;57.85
72798;BME280;61084;55.816;37.036;2023-04-06T07:50:39;100279.84;;;11.87;57.32
72798;BME280;61084;55.816;37.036;2023-04-06T07:53:05;100284.63;;;11.97;56.47
72798;BME280;61084;55.816;37.036;2023-04-06T07:55:31;100285.03;;;12.07;56.17
72798;BME280;61084;55.816;37.036;2023-04-06T07:57:57;100286.50;;;12.14;56.28
72798;BME280;61084;55.816;37.036;2023-04-06T08:00:23;100280.47;;;12.31;56.25
72798;BME280;61084;55.816;37.036;2023-04-06T08:02:49;100287.50;;;12.49;56.14
72798;BME280;61084;55.816;37.036;2023-04-06T08:05:14;100277.25;;;12.61;55.98
72798;BME280;61084;55.816;37.036;2023-04-06T08:07:40;100278.63;;;12.70;55.84
72798;BME280;61084;55.816;37.036;2023-04-06T08:10:08;100279.75;;;12.83;56.09
72798;BME280;61084;55.816;37.036;2023-04-06T08:12:34;100282.56;;;12.97;53.66
72798;BME280;61084;55.816;37.036;2023-04-06T08:15:00;100283.97;;;13.04;55.85
72798;BME280;61084;55.816;37.036;2023-04-06T08:17:29;100274.09;;;13.09;55.04
72798;BME280;61084;55.816;37.036;2023-04-06T08:19:56;100272.63;;;13.21;55.60
72798;BME280;61084;55.816;37.036;2023-04-06T08:22:22;100278.53;;;13.26;53.62
72798;BME280;61084;55.816;37.036;2023-04-06T08:24:48;100277.53;;;13.28;54.75
72798;BME280;61084;55.816;37.036;2023-04-06T08:27:14;100279.06;;;13.32;54.52
72798;BME280;61084;55.816;37.036;2023-04-06T08:29:40;100282.34;;;13.37;54.22
72798;BME280;61084;55.816;37.036;2023-04-06T08:32:06;100275.66;;;13.47;55.19
72798;BME280;61084;55.816;37.036;2023-04-06T08:34:33;100274.56;;;13.51;54.08
72798;BME280;61084;55.816;37.036;2023-04-06T08:36:59;100273.78;;;13.67;54.46
72798;BME280;61084;55.816;37.036;2023-04-06T08:39:25;100274.88;;;13.63;53.94
72798;BME280;61084;55.816;37.036;2023-04-06T08:41:59;100280.06;;;13.64;54.36
72798;BME280;61084;55.816;37.036;2023-04-06T08:44:29;100272.00;;;13.67;54.18
72798;BME280;61084;55.816;37.036;2023-04-06T08:46:55;100267.41;;;13.71;54.64
72798;BME280;61084;55.816;37.036;2023-04-06T08:49:22;100285.72;;;13.74;54.32
72798;BME280;61084;55.816;37.036;2023-04-06T08:51:49;100274.66;;;13.67;54.59
72798;BME280;61084;55.816;37.036;2023-04-06T08:54:15;100270.06;;;13.71;53.23
72798;BME280;61084;55.816;37.036;2023-04-06T08:56:42;100266.06;;;13.79;52.42
72798;BME280;61084;55.816;37.036;2023-04-06T08:59:09;100266.13;;;13.95;53.71
72798;BME280;61084;55.816;37.036;2023-04-06T09:01:39;100264.72;;;14.05;52.93
72798;BME280;61084;55.816;37.036;2023-04-06T09:04:07;100268.28;;;14.04;53.21
72798;BME280;61084;55.816;37.036;2023-04-06T09:06:36;100267.38;;;14.05;52.85
72798;BME280;61084;55.816;37.036;2023-04-06T09:09:03;100266.03;;;14.13;53.22
72798;BME280;61084;55.816;37.036;2023-04-06T09:11:29;100272.41;;;14.25;53.55
72798;BME280;61084;55.816;37.036;2023-04-06T09:13:55;100271.19;;;14.32;52.15
72798;BME280;61084;55.816;37.036;2023-04-06T09:16:22;100273.25;;;14.43;53.56
72798;BME280;61084;55.816;37.036;2023-04-06T09:18:49;100259.78;;;14.47;52.40
72798;BME280;61084;55.816;37.036;2023-04-06T09:21:19;100261.06;;;14.56;51.92
72798;BME280;61084;55.816;37.036;2023-04-06T09:23:45;100262.19;;;14.52;52.72
72798;BME280;61084;55.816;37.036;2023-04-06T09:26:15;100271.63;;;14.56;52.54
72798;BME280;61084;55.816;37.036;2023-04-06T09:28:50;100262.34;;;14.64;51.22
72798;BME280;61084;55.816;37.036;2023-04-06T09:31:21;100260.81;;;14.76;52.17
72798;BME280;61084;55.816;37.036;2023-04-06T09:33:47;100255.06;;;14.83;51.86
72798;BME280;61084;55.816;37.036;2023-04-06T09:36:14;100254.50;;;14.94;51.91
72798;BME280;61084;55.816;37.036;2023-04-06T09:39:01;100253.63;;;15.09;51.21
72798;BME280;61084;55.816;37.036;2023-04-06T09:41:30;100251.38;;;15.17;48.21
72798;BME280;61084;55.816;37.036;2023-04-06T09:44:22;100252.72;;;15.24;49.80
72798;BME280;61084;55.816;37.036;2023-04-06T09:46:51;100249.63;;;15.32;51.97
72798;BME280;61084;55.816;37.036;2023-04-06T09:49:19;100257.75;;;15.29;51.27
72798;BME280;61084;55.816;37.036;2023-04-06T09:51:46;100248.97;;;15.28;50.55
72798;BME280;61084;55.816;37.036;2023-04-06T09:54:28;100251.06;;;15.37;49.05
72798;BME280;61084;55.816;37.036;2023-04-06T09:57:29;100242.31;;;15.51;47.65
72798;BME280;61084;55.816;37.036;2023-04-06T10:00:04;100247.97;;;15.45;48.96
72798;BME280;61084;55.816;37.036;2023-04-06T10:07:57;100235.81;;;15.56;49.21
72798;BME280;61084;55.816;37.036;2023-04-06T10:10:25;100237.16;;;15.63;48.79
72798;BME280;61084;55.816;37.036;2023-04-06T10:12:51;100247.19;;;15.72;48.84
72798;BME280;61084;55.816;37.036;2023-04-06T10:15:17;100230.09;;;15.78;48.35
72798;BME280;61084;55.816;37.036;2023-04-06T10:17:43;100235.75;;;15.86;48.40
72798;BME280;61084;55.816;37.036;2023-04-06T10:20:18;100234.44;;;15.93;47.23
72798;BME280;61084;55.816;37.036;2023-04-06T10:22:58;100231.59;;;15.82;43.05
72798;BME280;61084;55.816;37.036;2023-04-06T10:25:32;100233.22;;;15.84;44.00
72798;BME280;61084;55.816;37.036;2023-04-06T10:28:08;100223.84;;;15.93;47.27
72798;BME280;61084;55.816;37.036;2023-04-06T10:30:40;100229.50;;;16.01;48.18
72798;BME280;61084;55.816;37.036;2023-04-06T10:33:13;100230.47;;;16.14;46.88
72798;BME280;61084;55.816;37.036;2023-04-06T10:35:40;100222.97;;;16.21;47.50
72798;BME280;61084;55.816;37.036;2023-04-06T10:38:06;100230.53;;;16.27;47.16
72798;BME280;61084;55.816;37.036;2023-04-06T10:40:35;100238.13;;;16.19;45.62
72798;BME280;61084;55.816;37.036;2023-04-06T10:43:09;100223.66;;;16.10;43.38
72798;BME280;61084;55.816;37.036;2023-04-06T10:45:35;100225.72;;;16.19;47.52
72798;BME280;61084;55.816;37.036;2023-04-06T10:48:12;100220.63;;;16.30;47.73
72798;BME280;61084;55.816;37.036;2023-04-06T10:50:38;100225.41;;;16.38;46.47
72798;BME280;61084;55.816;37.036;2023-04-06T10:53:05;100224.84;;;16.47;46.53
72798;BME280;61084;55.816;37.036;2023-04-06T10:55:32;100232.25;;;16.42;48.65
72798;BME280;61084;55.816;37.036;2023-04-06T10:57:58;100226.09;;;16.41;47.38
72798;BME280;61084;55.816;37.036;2023-04-06T11:00:24;100239.69;;;16.49;46.31
72798;BME280;61084;55.816;37.036;2023-04-06T11:02:50;100227.59;;;16.45;46.35
72798;BME280;61084;55.816;37.036;2023-04-06T11:05:15;100217.84;;;16.46;45.36
72798;BME280;61084;55.816;37.036;2023-04-06T11:07:42;100212.19;;;16.52;46.10
72798;BME280;61084;55.816;37.036;2023-04-06T11:10:08;100211.19;;;16.67;45.94
72798;BME280;61084;55.816;37.036;2023-04-06T11:12:34;100214.94;;;16.77;46.02
72798;BME280;61084;55.816;37.036;2023-04-06T11:15:01;100211.91;;;16.83;39.86
72798;BME280;61084;55.816;37.036;2023-04-06T11:17:34;100217.13;;;16.97;45.20
72798;BME280;61084;55.816;37.036;2023-04-06T11:20:02;100220.03;;;17.07;45.18
72798;BME280;61084;55.816;37.036;2023-04-06T11:22:30;100206.09;;;17.03;45.28
72798;BME280;61084;55.816;37.036;2023-04-06T11:25:06;100223.53;;;17.07;45.62
72798;BME280;61084;55.816;37.036;2023-04-06T11:27:33;100221.41;;;17.12;46.77
72798;BME280;61084;55.816;37.036;2023-04-06T11:30:00;100212.53;;;17.13;45.80
72798;BME280;61084;55.816;37.036;2023-04-06T11:32:26;100220.69;;;17.23;44.84
72798;BME280;61084;55.816;37.036;2023-04-06T11:34:52;100205.44;;;17.26;45.06
72798;BME280;61084;55.816;37.036;2023-04-06T11:37:18;100205.88;;;17.33;45.57
72798;BME280;61084;55.816;37.036;2023-04-06T11:39:48;100208.00;;;17.41;44.83
72798;BME280;61084;55.816;37.036;2023-04-06T11:42:29;100208.53;;;17.46;45.01
72798;BME280;61084;55.816;37.036;2023-04-06T11:44:59;100208.44;;;17.47;44.82
72798;BME280;61084;55.816;37.036;2023-04-06T11:47:29;100207.13;;;17.40;42.58
72798;BME280;61084;55.816;37.036;2023-04-06T11:49:56;100210.53;;;17.42;43.56
72798;BME280;61084;55.816;37.036;2023-04-06T11:52:30;100205.88;;;17.46;41.51
72798;BME280;61084;55.816;37.036;2023-04-06T11:54:56;100198.38;;;17.52;43.59
72798;BME280;61084;55.816;37.036;2023-04-06T11:57:23;100199.56;;;17.61;44.22
72798;BME280;61084;55.816;37.036;2023-04-06T11:59:52;100202.34;;;17.59;43.74
72798;BME280;61084;55.816;37.036;2023-04-06T12:02:18;100195.19;;;17.60;42.34
72798;BME280;61084;55.816;37.036;2023-04-06T12:04:44;100197.84;;;17.60;43.25
72798;BME280;61084;55.816;37.036;2023-04-06T12:07:10;100197.97;;;17.71;40.73
72798;BME280;61084;55.816;37.036;2023-04-06T12:09:36;100197.53;;;17.77;44.12
72798;BME280;61084;55.816;37.036;2023-04-06T12:12:03;100195.53;;;17.80;43.20
72798;BME280;61084;55.816;37.036;2023-04-06T12:14:29;100190.22;;;17.80;43.23
72798;BME280;61084;55.816;37.036;2023-04-06T12:16:57;100180.63;;;17.90;44.57
72798;BME280;61084;55.816;37.036;2023-04-06T12:19:23;100183.59;;;17.86;41.05
72798;BME280;61084;55.816;37.036;2023-04-06T12:21:54;100185.44;;;17.85;43.92
72798;BME280;61084;55.816;37.036;2023-04-06T12:24:21;100191.25;;;17.90;42.85
72798;BME280;61084;55.816;37.036;2023-04-06T12:26:47;100187.66;;;17.91;43.09
72798;BME280;61084;55.816;37.036;2023-04-06T12:29:12;100194.56;;;17.94;41.56
72798;BME280;61084;55.816;37.036;2023-04-06T12:31:38;100186.56;;;18.06;43.19
72798;BME280;61084;55.816;37.036;2023-04-06T12:34:06;100180.81;;;18.13;42.14
72798;BME280;61084;55.816;37.036;2023-04-06T12:36:33;100187.50;;;18.18;41.80
72798;BME280;61084;55.816;37.036;2023-04-06T12:38:59;100193.25;;;18.25;41.99
72798;BME280;61084;55.816;37.036;2023-04-06T12:41:29;100186.75;;;18.29;43.48
72798;BME280;61084;55.816;37.036;2023-04-06T12:43:55;100192.88;;;18.29;42.94
72798;BME280;61084;55.816;37.036;2023-04-06T12:46:21;100188.25;;;18.20;42.66
72798;BME280;61084;55.816;37.036;2023-04-06T12:48:47;100179.63;;;18.17;41.74
72798;BME280;61084;55.816;37.036;2023-04-06T12:51:13;100188.13;;;18.22;43.05
72798;BME280;61084;55.816;37.036;2023-04-06T12:53:39;100185.31;;;18.36;42.87
72798;BME280;61084;55.816;37.036;2023-04-06T12:56:13;100184.56;;;18.34;42.08
72798;BME280;61084;55.816;37.036;2023-04-06T12:58:39;100186.69;;;18.41;41.10